sensor_id;sensor_type;location;lat;lon;timestamp;P1;durP1;ratioP1;P2;durP2;ratioP2
40286;SDS011;25998;46.604;13.610;2022-12-07T00:00:49;420.17;;;34.05;;
40286;SDS011;25998;46.604;13.610;2022-12-07T00:04:01;284.15;;;22.58;;
40286;SDS011;25998;46.604;13.610;2022-12-07T00:07:16;176.93;;;16.85;;
40286;SDS011;25998;46.604;13.610;2022-12-07T00:10:26;167.18;;;17.38;;
40286;SDS011;25998;46.604;13.610;2022-12-07T00:13:38;248.07;;;20.63;;
40286;SDS011;25998;46.604;13.610;2022-12-07T00:16:50;196.50;;;17.35;;
40286;SDS011;25998;46.604;13.610;2022-12-07T00:20:01;34.53;;;10.00;;
40286;SDS011;25998;46.604;13.610;2022-12-07T00:23:12;46.53;;;9.48;;
40286;SDS011;25998;46.604;13.610;2022-12-07T00:26:24;12.02;;;8.15;;
40286;SDS011;25998;46.604;13.610;2022-12-07T00:29:39;8.50;;;7.07;;
40286;SDS011;25998;46.604;13.610;2022-12-07T00:32:50;10.50;;;6.60;;
40286;SDS011;25998;46.604;13.610;2022-12-07T00:36:01;9.63;;;7.35;;
40286;SDS011;25998;46.604;13.610;2022-12-07T00:39:17;10.88;;;7.05;;
40286;SDS011;25998;46.604;13.610;2022-12-07T00:42:28;46.78;;;9.38;;
40286;SDS011;25998;46.604;13.610;2022-12-07T00:45:39;40.92;;;9.20;;
40286;SDS011;25998;46.604;13.610;2022-12-07T00:48:51;10.85;;;7.03;;
40286;SDS011;25998;46.604;13.610;2022-12-07T00:52:02;102.28;;;12.65;;
40286;SDS011;25998;46.604;13.610;2022-12-07T00:55:13;7.50;;;6.63;;
40286;SDS011;25998;46.604;13.610;2022-12-07T00:58:24;9.48;;;6.88;;
40286;SDS011;25998;46.604;13.610;2022-12-07T01:01:35;7.85;;;6.13;;
40286;SDS011;25998;46.604;13.610;2022-12-07T01:04:47;14.32;;;6.90;;
40286;SDS011;25998;46.604;13.610;2022-12-07T01:07:58;10.27;;;7.15;;
40286;SDS011;25998;46.604;13.610;2022-12-07T01:11:09;8.90;;;7.03;;
40286;SDS011;25998;46.604;13.610;2022-12-07T01:14:23;6.80;;;5.68;;
40286;SDS011;25998;46.604;13.610;2022-12-07T01:17:34;7.85;;;5.72;;
40286;SDS011;25998;46.604;13.610;2022-12-07T01:20:45;317.63;;;26.58;;
40286;SDS011;25998;46.604;13.610;2022-12-07T01:24:17;189.57;;;19.88;;
40286;SDS011;25998;46.604;13.610;2022-12-07T01:27:28;187.85;;;17.15;;
40286;SDS011;25998;46.604;13.610;2022-12-07T01:30:39;125.60;;;13.90;;
40286;SDS011;25998;46.604;13.610;2022-12-07T01:33:51;274.65;;;22.10;;
40286;SDS011;25998;46.604;13.610;2022-12-07T01:37:03;336.75;;;27.38;;
40286;SDS011;25998;46.604;13.610;2022-12-07T01:40:14;264.05;;;23.60;;
40286;SDS011;25998;46.604;13.610;2022-12-07T01:43:26;252.65;;;22.90;;
40286;SDS011;25998;46.604;13.610;2022-12-07T01:46:39;81.47;;;11.48;;
40286;SDS011;25998;46.604;13.610;2022-12-07T01:49:51;16.63;;;7.38;;
40286;SDS011;25998;46.604;13.610;2022-12-07T01:53:03;9.30;;;7.00;;
40286;SDS011;25998;46.604;13.610;2022-12-07T01:56:17;7.88;;;6.40;;
40286;SDS011;25998;46.604;13.610;2022-12-07T01:59:30;8.68;;;6.38;;
40286;SDS011;25998;46.604;13.610;2022-12-07T02:02:43;7.80;;;5.75;;
40286;SDS011;25998;46.604;13.610;2022-12-07T02:06:01;7.60;;;6.57;;
40286;SDS011;25998;46.604;13.610;2022-12-07T02:09:13;7.10;;;5.43;;
40286;SDS011;25998;46.604;13.610;2022-12-07T02:12:24;7.13;;;5.72;;
40286;SDS011;25998;46.604;13.610;2022-12-07T02:15:49;6.20;;;5.30;;
40286;SDS011;25998;46.604;13.610;2022-12-07T02:33:14;7.95;;;6.13;;
40286;SDS011;25998;46.604;13.610;2022-12-07T02:36:30;9.10;;;6.00;;
40286;SDS011;25998;46.604;13.610;2022-12-07T02:39:50;12.05;;;6.47;;
40286;SDS011;25998;46.604;13.610;2022-12-07T02:43:14;8.48;;;5.57;;
40286;SDS011;25998;46.604;13.610;2022-12-07T02:46:30;7.57;;;5.82;;
40286;SDS011;25998;46.604;13.610;2022-12-07T02:49:45;7.97;;;5.72;;
40286;SDS011;25998;46.604;13.610;2022-12-07T02:52:57;8.45;;;5.40;;
40286;SDS011;25998;46.604;13.610;2022-12-07T02:59:54;7.15;;;5.95;;
40286;SDS011;25998;46.604;13.610;2022-12-07T03:03:15;8.55;;;6.47;;
40286;SDS011;25998;46.604;13.610;2022-12-07T03:06:28;7.70;;;5.63;;
40286;SDS011;25998;46.604;13.610;2022-12-07T03:09:47;8.13;;;6.68;;
40286;SDS011;25998;46.604;13.610;2022-12-07T03:17:17;8.35;;;6.38;;
40286;SDS011;25998;46.604;13.610;2022-12-07T03:20:31;9.63;;;6.53;;
40286;SDS011;25998;46.604;13.610;2022-12-07T03:23:45;8.75;;;6.45;;
40286;SDS011;25998;46.604;13.610;2022-12-07T03:27:02;6.80;;;5.85;;
40286;SDS011;25998;46.604;13.610;2022-12-07T03:30:20;8.77;;;6.85;;
40286;SDS011;25998;46.604;13.610;2022-12-07T03:34:20;7.65;;;6.38;;
40286;SDS011;25998;46.604;13.610;2022-12-07T03:37:26;6.13;;;5.38;;
40286;SDS011;25998;46.604;13.610;2022-12-07T03:44:05;7.38;;;5.80;;
40286;SDS011;25998;46.604;13.610;2022-12-07T03:51:06;6.72;;;5.78;;
40286;SDS011;25998;46.604;13.610;2022-12-07T03:58:00;6.97;;;5.15;;
40286;SDS011;25998;46.604;13.610;2022-12-07T04:01:15;7.13;;;5.22;;
40286;SDS011;25998;46.604;13.610;2022-12-07T04:04:28;6.53;;;5.50;;
40286;SDS011;25998;46.604;13.610;2022-12-07T04:07:39;6.38;;;5.60;;
40286;SDS011;25998;46.604;13.610;2022-12-07T04:10:51;7.63;;;6.30;;
40286;SDS011;25998;46.604;13.610;2022-12-07T04:14:02;7.80;;;5.55;;
40286;SDS011;25998;46.604;13.610;2022-12-07T04:17:31;6.28;;;5.60;;
40286;SDS011;25998;46.604;13.610;2022-12-07T04:20:42;6.25;;;5.05;;
40286;SDS011;25998;46.604;13.610;2022-12-07T04:23:52;8.25;;;5.50;;
40286;SDS011;25998;46.604;13.610;2022-12-07T04:27:03;6.15;;;5.43;;
40286;SDS011;25998;46.604;13.610;2022-12-07T04:30:14;5.85;;;5.25;;
40286;SDS011;25998;46.604;13.610;2022-12-07T04:33:25;6.70;;;5.40;;
40286;SDS011;25998;46.604;13.610;2022-12-07T04:36:36;6.70;;;5.68;;
40286;SDS011;25998;46.604;13.610;2022-12-07T04:39:48;7.57;;;5.50;;
40286;SDS011;25998;46.604;13.610;2022-12-07T04:42:59;6.68;;;5.80;;
40286;SDS011;25998;46.604;13.610;2022-12-07T04:46:10;6.10;;;5.28;;
40286;SDS011;25998;46.604;13.610;2022-12-07T04:49:21;6.95;;;5.20;;
40286;SDS011;25998;46.604;13.610;2022-12-07T04:52:31;6.78;;;5.72;;
40286;SDS011;25998;46.604;13.610;2022-12-07T04:55:43;6.72;;;5.57;;
40286;SDS011;25998;46.604;13.610;2022-12-07T04:58:54;7.55;;;5.93;;
40286;SDS011;25998;46.604;13.610;2022-12-07T05:02:05;7.55;;;6.75;;
40286;SDS011;25998;46.604;13.610;2022-12-07T05:05:16;7.15;;;5.95;;
40286;SDS011;25998;46.604;13.610;2022-12-07T05:08:27;9.55;;;5.97;;
40286;SDS011;25998;46.604;13.610;2022-12-07T05:11:38;9.13;;;6.57;;
40286;SDS011;25998;46.604;13.610;2022-12-07T05:14:49;6.00;;;5.07;;
40286;SDS011;25998;46.604;13.610;2022-12-07T05:17:59;7.43;;;6.00;;
40286;SDS011;25998;46.604;13.610;2022-12-07T05:21:10;8.77;;;6.00;;
40286;SDS011;25998;46.604;13.610;2022-12-07T05:24:21;8.05;;;5.82;;
40286;SDS011;25998;46.604;13.610;2022-12-07T05:27:32;6.88;;;5.47;;
40286;SDS011;25998;46.604;13.610;2022-12-07T05:30:43;8.05;;;5.70;;
40286;SDS011;25998;46.604;13.610;2022-12-07T05:33:54;7.80;;;5.85;;
40286;SDS011;25998;46.604;13.610;2022-12-07T05:37:04;5.90;;;5.10;;
40286;SDS011;25998;46.604;13.610;2022-12-07T05:40:15;7.28;;;5.80;;
40286;SDS011;25998;46.604;13.610;2022-12-07T05:43:27;7.40;;;5.68;;
40286;SDS011;25998;46.604;13.610;2022-12-07T05:46:38;8.40;;;5.60;;
40286;SDS011;25998;46.604;13.610;2022-12-07T05:49:49;6.57;;;5.28;;
40286;SDS011;25998;46.604;13.610;2022-12-07T05:53:00;7.00;;;5.38;;
40286;SDS011;25998;46.604;13.610;2022-12-07T05:56:11;7.63;;;5.80;;
40286;SDS011;25998;46.604;13.610;2022-12-07T05:59:22;8.48;;;5.55;;
40286;SDS011;25998;46.604;13.610;2022-12-07T06:02:33;6.25;;;5.65;;
40286;SDS011;25998;46.604;13.610;2022-12-07T06:05:44;7.95;;;6.78;;
40286;SDS011;25998;46.604;13.610;2022-12-07T06:08:55;9.52;;;6.75;;
40286;SDS011;25998;46.604;13.610;2022-12-07T06:12:06;8.95;;;6.13;;
40286;SDS011;25998;46.604;13.610;2022-12-07T06:15:37;9.60;;;6.85;;
40286;SDS011;25998;46.604;13.610;2022-12-07T06:18:48;12.52;;;7.47;;
40286;SDS011;25998;46.604;13.610;2022-12-07T06:21:59;10.38;;;6.93;;
40286;SDS011;25998;46.604;13.610;2022-12-07T06:25:10;8.93;;;6.20;;
40286;SDS011;25998;46.604;13.610;2022-12-07T06:28:21;8.10;;;6.15;;
40286;SDS011;25998;46.604;13.610;2022-12-07T06:31:32;7.43;;;6.00;;
40286;SDS011;25998;46.604;13.610;2022-12-07T06:34:42;8.32;;;5.22;;
40286;SDS011;25998;46.604;13.610;2022-12-07T06:37:53;9.85;;;6.35;;
40286;SDS011;25998;46.604;13.610;2022-12-07T06:41:04;11.27;;;8.52;;
40286;SDS011;25998;46.604;13.610;2022-12-07T06:44:15;7.93;;;6.10;;
40286;SDS011;25998;46.604;13.610;2022-12-07T06:47:26;8.20;;;6.80;;
40286;SDS011;25998;46.604;13.610;2022-12-07T06:50:37;10.52;;;6.95;;
40286;SDS011;25998;46.604;13.610;2022-12-07T06:53:48;9.30;;;6.55;;
40286;SDS011;25998;46.604;13.610;2022-12-07T06:56:58;9.88;;;7.85;;
40286;SDS011;25998;46.604;13.610;2022-12-07T07:00:10;8.07;;;5.78;;
40286;SDS011;25998;46.604;13.610;2022-12-07T07:03:21;10.35;;;7.53;;
40286;SDS011;25998;46.604;13.610;2022-12-07T07:06:32;9.50;;;6.57;;
40286;SDS011;25998;46.604;13.610;2022-12-07T07:09:43;23.05;;;15.82;;
40286;SDS011;25998;46.604;13.610;2022-12-07T07:12:53;13.90;;;9.05;;
40286;SDS011;25998;46.604;13.610;2022-12-07T07:16:05;11.95;;;8.82;;
40286;SDS011;25998;46.604;13.610;2022-12-07T07:19:16;7.57;;;5.40;;
40286;SDS011;25998;46.604;13.610;2022-12-07T07:22:27;5.18;;;4.60;;
40286;SDS011;25998;46.604;13.610;2022-12-07T07:25:38;5.57;;;4.25;;
40286;SDS011;25998;46.604;13.610;2022-12-07T07:28:49;6.65;;;4.82;;
40286;SDS011;25998;46.604;13.610;2022-12-07T07:32:00;5.45;;;4.60;;
40286;SDS011;25998;46.604;13.610;2022-12-07T07:35:11;6.20;;;4.90;;
40286;SDS011;25998;46.604;13.610;2022-12-07T07:38:24;6.70;;;4.65;;
40286;SDS011;25998;46.604;13.610;2022-12-07T07:41:34;8.65;;;4.90;;
40286;SDS011;25998;46.604;13.610;2022-12-07T07:44:45;5.75;;;4.38;;
40286;SDS011;25998;46.604;13.610;2022-12-07T07:47:56;5.88;;;4.60;;
40286;SDS011;25998;46.604;13.610;2022-12-07T07:51:07;4.85;;;3.90;;
40286;SDS011;25998;46.604;13.610;2022-12-07T07:54:19;5.60;;;4.22;;
40286;SDS011;25998;46.604;13.610;2022-12-07T07:57:29;6.97;;;4.72;;
40286;SDS011;25998;46.604;13.610;2022-12-07T08:00:40;6.22;;;4.68;;
40286;SDS011;25998;46.604;13.610;2022-12-07T08:03:51;15.02;;;9.27;;
40286;SDS011;25998;46.604;13.610;2022-12-07T08:07:02;10.88;;;5.90;;
40286;SDS011;25998;46.604;13.610;2022-12-07T08:10:13;6.63;;;5.15;;
40286;SDS011;25998;46.604;13.610;2022-12-07T08:13:24;7.13;;;4.68;;
40286;SDS011;25998;46.604;13.610;2022-12-07T08:16:35;6.60;;;5.05;;
40286;SDS011;25998;46.604;13.610;2022-12-07T08:19:45;8.18;;;4.72;;
40286;SDS011;25998;46.604;13.610;2022-12-07T08:22:56;7.05;;;5.07;;
40286;SDS011;25998;46.604;13.610;2022-12-07T08:26:08;6.85;;;4.40;;
40286;SDS011;25998;46.604;13.610;2022-12-07T08:29:21;6.68;;;3.90;;
40286;SDS011;25998;46.604;13.610;2022-12-07T08:32:31;5.20;;;3.30;;
40286;SDS011;25998;46.604;13.610;2022-12-07T08:35:42;5.40;;;3.85;;
40286;SDS011;25998;46.604;13.610;2022-12-07T08:38:53;5.13;;;3.70;;
40286;SDS011;25998;46.604;13.610;2022-12-07T08:42:04;4.70;;;3.80;;
40286;SDS011;25998;46.604;13.610;2022-12-07T08:45:15;6.15;;;3.72;;
40286;SDS011;25998;46.604;13.610;2022-12-07T08:48:28;4.18;;;3.22;;
40286;SDS011;25998;46.604;13.610;2022-12-07T08:51:39;5.95;;;4.13;;
40286;SDS011;25998;46.604;13.610;2022-12-07T08:54:51;4.18;;;3.22;;
40286;SDS011;25998;46.604;13.610;2022-12-07T08:58:02;7.03;;;3.90;;
40286;SDS011;25998;46.604;13.610;2022-12-07T09:01:13;5.97;;;3.53;;
40286;SDS011;25998;46.604;13.610;2022-12-07T09:04:24;6.28;;;4.80;;
40286;SDS011;25998;46.604;13.610;2022-12-07T09:07:35;6.80;;;4.68;;
40286;SDS011;25998;46.604;13.610;2022-12-07T09:10:47;6.00;;;5.05;;
40286;SDS011;25998;46.604;13.610;2022-12-07T09:13:58;9.60;;;6.70;;
40286;SDS011;25998;46.604;13.610;2022-12-07T09:17:10;13.07;;;7.97;;
40286;SDS011;25998;46.604;13.610;2022-12-07T09:20:22;9.68;;;7.40;;
40286;SDS011;25998;46.604;13.610;2022-12-07T09:23:33;8.98;;;6.20;;
40286;SDS011;25998;46.604;13.610;2022-12-07T09:26:44;9.20;;;6.85;;
40286;SDS011;25998;46.604;13.610;2022-12-07T09:29:55;8.18;;;5.43;;
40286;SDS011;25998;46.604;13.610;2022-12-07T09:33:06;7.78;;;5.82;;
40286;SDS011;25998;46.604;13.610;2022-12-07T09:36:17;7.40;;;5.18;;
40286;SDS011;25998;46.604;13.610;2022-12-07T09:39:27;6.72;;;4.93;;
40286;SDS011;25998;46.604;13.610;2022-12-07T09:42:39;8.30;;;4.95;;
40286;SDS011;25998;46.604;13.610;2022-12-07T09:45:54;7.38;;;4.85;;
40286;SDS011;25998;46.604;13.610;2022-12-07T09:49:09;6.93;;;4.60;;
40286;SDS011;25998;46.604;13.610;2022-12-07T09:52:25;5.88;;;4.80;;
40286;SDS011;25998;46.604;13.610;2022-12-07T09:55:38;7.78;;;4.78;;
40286;SDS011;25998;46.604;13.610;2022-12-07T09:58:59;9.35;;;4.88;;
40286;SDS011;25998;46.604;13.610;2022-12-07T10:02:25;10.98;;;5.47;;
40286;SDS011;25998;46.604;13.610;2022-12-07T10:05:50;14.10;;;5.88;;
40286;SDS011;25998;46.604;13.610;2022-12-07T10:09:07;6.88;;;4.30;;
40286;SDS011;25998;46.604;13.610;2022-12-07T10:12:24;12.38;;;4.90;;
40286;SDS011;25998;46.604;13.610;2022-12-07T10:15:55;65.30;;;9.00;;
40286;SDS011;25998;46.604;13.610;2022-12-07T10:19:18;25.90;;;5.35;;
40286;SDS011;25998;46.604;13.610;2022-12-07T10:22:32;7.35;;;4.00;;
40286;SDS011;25998;46.604;13.610;2022-12-07T10:25:43;6.07;;;3.75;;
40286;SDS011;25998;46.604;13.610;2022-12-07T10:28:55;9.90;;;4.05;;
40286;SDS011;25998;46.604;13.610;2022-12-07T10:35:28;48.40;;;8.40;;
40286;SDS011;25998;46.604;13.610;2022-12-07T10:38:39;7.25;;;3.80;;
40286;SDS011;25998;46.604;13.610;2022-12-07T10:41:57;11.57;;;4.45;;
40286;SDS011;25998;46.604;13.610;2022-12-07T10:48:33;10.43;;;4.72;;
40286;SDS011;25998;46.604;13.610;2022-12-07T11:03:18;8.38;;;3.95;;
40286;SDS011;25998;46.604;13.610;2022-12-07T11:06:52;7.65;;;3.78;;
40286;SDS011;25998;46.604;13.610;2022-12-07T11:17:07;8.43;;;3.10;;
40286;SDS011;25998;46.604;13.610;2022-12-07T11:24:04;17.57;;;3.90;;
40286;SDS011;25998;46.604;13.610;2022-12-07T11:27:24;5.70;;;3.05;;
40286;SDS011;25998;46.604;13.610;2022-12-07T11:34:43;4.47;;;2.60;;
40286;SDS011;25998;46.604;13.610;2022-12-07T11:38:22;4.53;;;2.25;;
40286;SDS011;25998;46.604;13.610;2022-12-07T11:41:38;28.73;;;5.70;;
40286;SDS011;25998;46.604;13.610;2022-12-07T11:44:53;4.25;;;2.53;;
40286;SDS011;25998;46.604;13.610;2022-12-07T11:48:24;21.48;;;3.85;;
40286;SDS011;25998;46.604;13.610;2022-12-07T11:51:51;7.72;;;2.53;;
40286;SDS011;25998;46.604;13.610;2022-12-07T11:55:06;9.50;;;2.83;;
40286;SDS011;25998;46.604;13.610;2022-12-07T12:02:14;6.18;;;3.05;;
40286;SDS011;25998;46.604;13.610;2022-12-07T12:05:34;16.30;;;3.80;;
40286;SDS011;25998;46.604;13.610;2022-12-07T12:08:55;5.55;;;3.03;;
40286;SDS011;25998;46.604;13.610;2022-12-07T12:12:32;36.20;;;6.30;;
40286;SDS011;25998;46.604;13.610;2022-12-07T12:20:00;8.32;;;3.20;;
40286;SDS011;25998;46.604;13.610;2022-12-07T12:23:20;4.55;;;2.83;;
40286;SDS011;25998;46.604;13.610;2022-12-07T12:26:36;14.18;;;3.88;;
40286;SDS011;25998;46.604;13.610;2022-12-07T12:29:52;4.30;;;2.92;;
40286;SDS011;25998;46.604;13.610;2022-12-07T12:36:18;44.75;;;7.30;;
40286;SDS011;25998;46.604;13.610;2022-12-07T12:39:59;4.88;;;2.75;;
40286;SDS011;25998;46.604;13.610;2022-12-07T12:47:02;20.55;;;4.15;;
40286;SDS011;25998;46.604;13.610;2022-12-07T12:50:18;4.80;;;2.78;;
40286;SDS011;25998;46.604;13.610;2022-12-07T12:53:34;4.30;;;2.92;;
40286;SDS011;25998;46.604;13.610;2022-12-07T13:00:20;3.60;;;2.65;;
40286;SDS011;25998;46.604;13.610;2022-12-07T13:03:33;4.20;;;2.70;;
40286;SDS011;25998;46.604;13.610;2022-12-07T13:06:44;3.45;;;2.63;;
40286;SDS011;25998;46.604;13.610;2022-12-07T13:09:56;9.88;;;2.95;;
40286;SDS011;25998;46.604;13.610;2022-12-07T13:22:52;4.93;;;3.00;;
40286;SDS011;25998;46.604;13.610;2022-12-07T13:26:18;5.15;;;3.35;;
40286;SDS011;25998;46.604;13.610;2022-12-07T13:29:36;32.65;;;6.93;;
40286;SDS011;25998;46.604;13.610;2022-12-07T13:32:52;6.07;;;3.53;;
40286;SDS011;25998;46.604;13.610;2022-12-07T13:36:04;5.57;;;3.00;;
40286;SDS011;25998;46.604;13.610;2022-12-07T13:39:26;4.78;;;3.25;;
40286;SDS011;25998;46.604;13.610;2022-12-07T13:42:37;13.07;;;3.45;;
40286;SDS011;25998;46.604;13.610;2022-12-07T13:45:55;17.15;;;4.28;;
40286;SDS011;25998;46.604;13.610;2022-12-07T13:49:21;5.28;;;3.72;;
40286;SDS011;25998;46.604;13.610;2022-12-07T13:52:42;9.07;;;4.38;;
40286;SDS011;25998;46.604;13.610;2022-12-07T13:55:54;6.03;;;3.40;;
40286;SDS011;25998;46.604;13.610;2022-12-07T13:59:07;4.60;;;3.75;;
40286;SDS011;25998;46.604;13.610;2022-12-07T14:02:53;5.40;;;3.65;;
40286;SDS011;25998;46.604;13.610;2022-12-07T14:06:17;4.93;;;3.60;;
40286;SDS011;25998;46.604;13.610;2022-12-07T14:09:31;5.85;;;4.00;;
40286;SDS011;25998;46.604;13.610;2022-12-07T14:12:42;5.40;;;3.72;;
40286;SDS011;25998;46.604;13.610;2022-12-07T14:15:53;4.78;;;4.00;;
40286;SDS011;25998;46.604;13.610;2022-12-07T14:19:04;9.30;;;3.95;;
40286;SDS011;25998;46.604;13.610;2022-12-07T14:22:36;3.83;;;3.30;;
40286;SDS011;25998;46.604;13.610;2022-12-07T14:25:49;20.02;;;5.03;;
40286;SDS011;25998;46.604;13.610;2022-12-07T14:29:29;6.10;;;4.10;;
40286;SDS011;25998;46.604;13.610;2022-12-07T14:32:41;4.80;;;3.15;;
40286;SDS011;25998;46.604;13.610;2022-12-07T14:35:53;4.18;;;3.22;;
40286;SDS011;25998;46.604;13.610;2022-12-07T14:39:08;6.78;;;3.45;;
40286;SDS011;25998;46.604;13.610;2022-12-07T14:42:18;5.15;;;3.63;;
40286;SDS011;25998;46.604;13.610;2022-12-07T14:45:31;6.53;;;3.78;;
40286;SDS011;25998;46.604;13.610;2022-12-07T14:48:42;9.50;;;3.45;;
40286;SDS011;25998;46.604;13.610;2022-12-07T14:51:53;5.30;;;3.25;;
40286;SDS011;25998;46.604;13.610;2022-12-07T14:55:04;3.83;;;3.08;;
40286;SDS011;25998;46.604;13.610;2022-12-07T14:58:22;3.92;;;3.25;;
40286;SDS011;25998;46.604;13.610;2022-12-07T15:01:33;4.35;;;3.50;;
40286;SDS011;25998;46.604;13.610;2022-12-07T15:04:44;3.70;;;2.72;;
40286;SDS011;25998;46.604;13.610;2022-12-07T15:07:55;5.55;;;3.75;;
40286;SDS011;25998;46.604;13.610;2022-12-07T15:11:05;4.40;;;3.70;;
40286;SDS011;25998;46.604;13.610;2022-12-07T15:14:19;4.25;;;3.60;;
40286;SDS011;25998;46.604;13.610;2022-12-07T15:17:30;4.10;;;3.40;;
40286;SDS011;25998;46.604;13.610;2022-12-07T15:20:41;4.50;;;3.78;;
40286;SDS011;25998;46.604;13.610;2022-12-07T15:23:52;4.22;;;3.63;;
40286;SDS011;25998;46.604;13.610;2022-12-07T15:27:03;5.15;;;4.10;;
40286;SDS011;25998;46.604;13.610;2022-12-07T15:30:15;5.13;;;3.83;;
40286;SDS011;25998;46.604;13.610;2022-12-07T15:33:26;4.47;;;3.85;;
40286;SDS011;25998;46.604;13.610;2022-12-07T15:36:36;5.20;;;4.18;;
40286;SDS011;25998;46.604;13.610;2022-12-07T15:39:47;4.93;;;4.00;;
40286;SDS011;25998;46.604;13.610;2022-12-07T15:42:58;5.45;;;4.18;;
40286;SDS011;25998;46.604;13.610;2022-12-07T15:46:09;6.35;;;4.72;;
40286;SDS011;25998;46.604;13.610;2022-12-07T15:49:20;5.78;;;3.90;;
40286;SDS011;25998;46.604;13.610;2022-12-07T15:52:31;4.97;;;3.97;;
40286;SDS011;25998;46.604;13.610;2022-12-07T15:55:42;4.65;;;3.90;;
40286;SDS011;25998;46.604;13.610;2022-12-07T15:58:53;5.40;;;3.80;;
40286;SDS011;25998;46.604;13.610;2022-12-07T16:02:04;6.63;;;3.90;;
40286;SDS011;25998;46.604;13.610;2022-12-07T16:05:14;6.70;;;4.03;;
40286;SDS011;25998;46.604;13.610;2022-12-07T16:08:25;6.43;;;4.97;;
40286;SDS011;25998;46.604;13.610;2022-12-07T16:11:36;7.00;;;5.15;;
40286;SDS011;25998;46.604;13.610;2022-12-07T16:14:47;8.93;;;5.30;;
40286;SDS011;25998;46.604;13.610;2022-12-07T16:17:58;7.30;;;5.85;;
40286;SDS011;25998;46.604;13.610;2022-12-07T16:21:08;6.50;;;4.78;;
40286;SDS011;25998;46.604;13.610;2022-12-07T16:24:19;9.82;;;5.32;;
40286;SDS011;25998;46.604;13.610;2022-12-07T16:27:30;6.80;;;4.82;;
40286;SDS011;25998;46.604;13.610;2022-12-07T16:30:41;6.20;;;5.00;;
40286;SDS011;25998;46.604;13.610;2022-12-07T16:33:52;5.63;;;4.38;;
40286;SDS011;25998;46.604;13.610;2022-12-07T16:37:04;6.18;;;4.65;;
40286;SDS011;25998;46.604;13.610;2022-12-07T16:40:15;6.28;;;4.88;;
40286;SDS011;25998;46.604;13.610;2022-12-07T16:43:26;6.35;;;5.22;;
40286;SDS011;25998;46.604;13.610;2022-12-07T16:46:37;6.07;;;4.97;;
40286;SDS011;25998;46.604;13.610;2022-12-07T16:49:48;7.28;;;4.70;;
40286;SDS011;25998;46.604;13.610;2022-12-07T16:52:59;6.82;;;5.10;;
40286;SDS011;25998;46.604;13.610;2022-12-07T16:56:10;5.95;;;4.95;;
40286;SDS011;25998;46.604;13.610;2022-12-07T16:59:26;6.35;;;4.45;;
40286;SDS011;25998;46.604;13.610;2022-12-07T17:02:37;5.18;;;4.53;;
40286;SDS011;25998;46.604;13.610;2022-12-07T17:05:50;9.40;;;6.53;;
40286;SDS011;25998;46.604;13.610;2022-12-07T17:09:01;7.00;;;4.63;;
40286;SDS011;25998;46.604;13.610;2022-12-07T17:12:15;5.22;;;4.68;;
40286;SDS011;25998;46.604;13.610;2022-12-07T17:15:27;5.57;;;4.85;;
40286;SDS011;25998;46.604;13.610;2022-12-07T17:18:38;12.35;;;9.38;;
40286;SDS011;25998;46.604;13.610;2022-12-07T17:21:49;7.90;;;5.38;;
40286;SDS011;25998;46.604;13.610;2022-12-07T17:25:00;5.47;;;4.90;;
40286;SDS011;25998;46.604;13.610;2022-12-07T17:28:11;5.93;;;5.20;;
40286;SDS011;25998;46.604;13.610;2022-12-07T17:31:23;6.85;;;4.95;;
40286;SDS011;25998;46.604;13.610;2022-12-07T17:34:34;6.15;;;4.72;;
40286;SDS011;25998;46.604;13.610;2022-12-07T17:37:46;5.50;;;4.40;;
40286;SDS011;25998;46.604;13.610;2022-12-07T17:40:57;7.03;;;5.40;;
40286;SDS011;25998;46.604;13.610;2022-12-07T17:44:10;5.68;;;5.07;;
40286;SDS011;25998;46.604;13.610;2022-12-07T17:47:22;6.82;;;5.18;;
40286;SDS011;25998;46.604;13.610;2022-12-07T17:50:33;6.13;;;5.53;;
40286;SDS011;25998;46.604;13.610;2022-12-07T17:54:02;7.03;;;5.78;;
40286;SDS011;25998;46.604;13.610;2022-12-07T17:57:13;7.40;;;6.05;;
40286;SDS011;25998;46.604;13.610;2022-12-07T18:00:24;6.35;;;5.68;;
40286;SDS011;25998;46.604;13.610;2022-12-07T18:03:35;6.38;;;5.60;;
40286;SDS011;25998;46.604;13.610;2022-12-07T18:06:46;7.35;;;6.30;;
40286;SDS011;25998;46.604;13.610;2022-12-07T18:09:56;7.35;;;6.07;;
40286;SDS011;25998;46.604;13.610;2022-12-07T18:13:07;6.60;;;5.32;;
40286;SDS011;25998;46.604;13.610;2022-12-07T18:16:40;7.43;;;5.50;;
40286;SDS011;25998;46.604;13.610;2022-12-07T18:19:53;5.93;;;5.13;;
40286;SDS011;25998;46.604;13.610;2022-12-07T18:23:04;7.43;;;5.85;;
40286;SDS011;25998;46.604;13.610;2022-12-07T18:26:15;9.98;;;8.77;;
40286;SDS011;25998;46.604;13.610;2022-12-07T18:29:27;20.92;;;16.13;;
40286;SDS011;25998;46.604;13.610;2022-12-07T18:32:38;6.70;;;6.00;;
40286;SDS011;25998;46.604;13.610;2022-12-07T18:35:49;6.93;;;5.95;;
40286;SDS011;25998;46.604;13.610;2022-12-07T18:38:59;6.82;;;5.95;;
40286;SDS011;25998;46.604;13.610;2022-12-07T18:42:14;7.05;;;5.70;;
40286;SDS011;25998;46.604;13.610;2022-12-07T18:45:24;6.63;;;6.00;;
40286;SDS011;25998;46.604;13.610;2022-12-07T18:48:38;6.28;;;5.65;;
40286;SDS011;25998;46.604;13.610;2022-12-07T18:51:49;6.97;;;6.07;;
40286;SDS011;25998;46.604;13.610;2022-12-07T18:55:00;6.60;;;5.85;;
40286;SDS011;25998;46.604;13.610;2022-12-07T18:58:12;7.57;;;5.82;;
40286;SDS011;25998;46.604;13.610;2022-12-07T19:01:25;6.72;;;6.00;;
40286;SDS011;25998;46.604;13.610;2022-12-07T19:04:36;6.88;;;6.10;;
40286;SDS011;25998;46.604;13.610;2022-12-07T19:07:47;7.25;;;6.55;;
40286;SDS011;25998;46.604;13.610;2022-12-07T19:11:00;6.88;;;6.18;;
40286;SDS011;25998;46.604;13.610;2022-12-07T19:14:35;5.85;;;5.20;;
40286;SDS011;25998;46.604;13.610;2022-12-07T19:17:47;8.10;;;5.97;;
40286;SDS011;25998;46.604;13.610;2022-12-07T19:21:01;6.80;;;6.13;;
40286;SDS011;25998;46.604;13.610;2022-12-07T19:24:13;7.63;;;6.57;;
40286;SDS011;25998;46.604;13.610;2022-12-07T19:27:24;6.43;;;5.65;;
40286;SDS011;25998;46.604;13.610;2022-12-07T19:30:36;7.15;;;6.00;;
40286;SDS011;25998;46.604;13.610;2022-12-07T19:33:47;8.07;;;6.15;;
40286;SDS011;25998;46.604;13.610;2022-12-07T19:36:58;7.25;;;5.70;;
40286;SDS011;25998;46.604;13.610;2022-12-07T19:40:09;7.13;;;5.82;;
40286;SDS011;25998;46.604;13.610;2022-12-07T19:43:20;6.22;;;5.50;;
40286;SDS011;25998;46.604;13.610;2022-12-07T19:46:31;6.47;;;5.43;;
40286;SDS011;25998;46.604;13.610;2022-12-07T19:49:43;7.05;;;6.03;;
40286;SDS011;25998;46.604;13.610;2022-12-07T19:52:54;6.90;;;5.75;;
40286;SDS011;25998;46.604;13.610;2022-12-07T19:56:05;6.32;;;5.50;;
40286;SDS011;25998;46.604;13.610;2022-12-07T19:59:18;6.13;;;5.47;;
40286;SDS011;25998;46.604;13.610;2022-12-07T20:02:30;6.38;;;5.38;;
40286;SDS011;25998;46.604;13.610;2022-12-07T20:05:41;5.97;;;5.32;;
40286;SDS011;25998;46.604;13.610;2022-12-07T20:08:51;6.93;;;6.10;;
40286;SDS011;25998;46.604;13.610;2022-12-07T20:12:02;7.53;;;6.63;;
40286;SDS011;25998;46.604;13.610;2022-12-07T20:15:32;6.73;;;5.90;;
40286;SDS011;25998;46.604;13.610;2022-12-07T20:18:46;7.50;;;6.32;;
40286;SDS011;25998;46.604;13.610;2022-12-07T20:21:57;7.22;;;6.30;;
40286;SDS011;25998;46.604;13.610;2022-12-07T20:25:08;7.68;;;6.40;;
40286;SDS011;25998;46.604;13.610;2022-12-07T20:28:19;7.72;;;6.82;;
40286;SDS011;25998;46.604;13.610;2022-12-07T20:31:30;6.35;;;5.30;;
40286;SDS011;25998;46.604;13.610;2022-12-07T20:34:41;6.63;;;5.93;;
40286;SDS011;25998;46.604;13.610;2022-12-07T20:37:53;6.63;;;5.97;;